createdAt,value
2023-02-16T00:07:20.276Z,6.7
2023-02-16T00:22:20.258Z,6.8
2023-02-16T00:37:20.281Z,6.6
2023-02-16T00:52:20.266Z,6.6
2023-02-16T01:07:20.287Z,6.4
2023-02-16T01:22:20.326Z,6.2
2023-02-16T01:37:20.282Z,6.1
2023-02-16T01:52:20.302Z,6
2023-02-16T02:07:20.214Z,6
2023-02-16T02:22:20.166Z,5.9
2023-02-16T02:37:20.294Z,6
2023-02-16T02:52:20.283Z,6
2023-02-16T03:07:20.256Z,5.9
2023-02-16T03:22:20.274Z,5.8
2023-02-16T03:37:20.293Z,5.8
2023-02-16T03:52:20.304Z,5.7
2023-02-16T04:07:20.302Z,5.7
2023-02-16T04:22:20.267Z,5.8
2023-02-16T04:37:20.268Z,5.7
2023-02-16T04:52:20.275Z,5.7
2023-02-16T05:07:20.271Z,5.7
2023-02-16T05:22:20.277Z,5.9
2023-02-16T05:37:20.284Z,6.1
2023-02-16T05:52:20.294Z,6.2
2023-02-16T06:07:20.280Z,6.2
2023-02-16T06:22:20.261Z,6.2
2023-02-16T06:37:20.306Z,6.4
2023-02-16T06:52:20.283Z,6.5
2023-02-16T07:07:20.298Z,6.8
2023-02-16T07:22:20.297Z,6.9
2023-02-16T07:37:20.268Z,7.1
2023-02-16T07:52:20.272Z,7.6
2023-02-16T08:07:20.263Z,7.6
2023-02-16T08:22:20.189Z,7.8
2023-02-16T08:37:20.280Z,8.4
2023-02-16T08:52:20.269Z,8.8
2023-02-16T09:07:20.285Z,9.1
2023-02-16T09:22:20.274Z,9.2
2023-02-16T09:37:20.248Z,9
2023-02-16T09:52:20.253Z,8.9
2023-02-16T10:07:20.282Z,8.9
2023-02-16T10:22:20.287Z,8.8
2023-02-16T10:37:20.301Z,8.8
2023-02-16T10:52:20.302Z,8.9
2023-02-16T11:07:20.282Z,9.2
2023-02-16T11:22:20.271Z,9.5
2023-02-16T11:37:20.293Z,9.4
2023-02-16T11:52:20.281Z,9.4
2023-02-16T12:07:20.311Z,9.5
2023-02-16T12:22:20.268Z,9.5
2023-02-16T12:37:20.263Z,9.9
2023-02-16T12:52:20.167Z,10.1
2023-02-16T13:07:20.294Z,10.6
2023-02-16T13:22:20.307Z,10.8
2023-02-16T13:37:20.271Z,10.9
2023-02-16T13:52:20.290Z,10.9
2023-02-16T14:07:20.307Z,11
2023-02-16T14:22:20.270Z,11.2
2023-02-16T14:37:20.265Z,11.4
2023-02-16T14:52:20.284Z,11.6
2023-02-16T15:07:20.217Z,11.6
2023-02-16T15:22:20.292Z,11.9
2023-02-16T15:37:20.285Z,11.8
2023-02-16T15:52:20.297Z,12
2023-02-16T16:07:20.267Z,11.4
2023-02-16T16:22:22.073Z,11.1
2023-02-16T16:37:20.293Z,10.8
2023-02-16T16:52:20.253Z,10.6
2023-02-16T17:07:20.177Z,10.6
2023-02-16T17:22:20.319Z,10.5
2023-02-16T17:37:20.305Z,10.4
2023-02-16T17:52:20.279Z,10.2
2023-02-16T18:07:20.274Z,10.1
2023-02-16T18:22:20.198Z,9.8
2023-02-16T18:37:20.285Z,9.2
2023-02-16T18:52:20.190Z,8.7
2023-02-16T19:07:20.273Z,8.8
2023-02-16T19:22:20.279Z,8.9
2023-02-16T19:37:20.201Z,9
2023-02-16T19:52:20.276Z,9.1
2023-02-16T20:07:20.284Z,9.2
2023-02-16T20:22:20.302Z,9.4
2023-02-16T20:37:20.222Z,9.5
2023-02-16T20:52:20.270Z,9.6
2023-02-16T21:07:20.284Z,9.6
2023-02-16T21:22:20.328Z,9.7
2023-02-16T21:37:20.222Z,9.8
2023-02-16T21:52:20.306Z,9.8
2023-02-16T22:07:20.270Z,9.8
2023-02-16T22:22:20.283Z,9.8
2023-02-16T22:37:20.283Z,9.8
2023-02-16T22:52:20.268Z,9.8
2023-02-16T23:07:20.195Z,9.8
2023-02-16T23:22:20.156Z,9.8
2023-02-16T23:37:20.279Z,9.6
2023-02-16T23:52:20.246Z,9.5
